createdAt,value
2022-08-02T00:00:13.432Z,15.30
2022-08-02T00:02:41.217Z,15.30
2022-08-02T00:05:08.987Z,15.20
2022-08-02T00:07:41.005Z,15.10
2022-08-02T00:10:10.757Z,15.10
2022-08-02T00:12:38.146Z,15.00
2022-08-02T00:15:07.279Z,15.00
2022-08-02T00:17:34.016Z,15.00
2022-08-02T00:20:02.097Z,14.90
2022-08-02T00:22:28.880Z,15.00
2022-08-02T00:24:55.841Z,14.90
2022-08-02T00:27:22.576Z,14.90
2022-08-02T00:29:52.871Z,14.80
2022-08-02T00:32:24.457Z,14.90
2022-08-02T00:34:51.640Z,14.90
2022-08-02T00:37:18.359Z,14.90
2022-08-02T00:39:46.108Z,14.90
2022-08-02T00:42:15.514Z,14.90
2022-08-02T00:44:42.651Z,14.90
2022-08-02T00:47:09.542Z,14.90
2022-08-02T00:49:36.373Z,14.90
2022-08-02T00:52:03.740Z,14.90
2022-08-02T00:54:30.625Z,14.80
2022-08-02T00:56:57.506Z,14.70
2022-08-02T00:59:24.258Z,14.70
2022-08-02T01:01:55.766Z,14.80
2022-08-02T01:04:29.780Z,14.80
2022-08-02T01:06:59.965Z,14.70
2022-08-02T01:09:27.049Z,14.70
2022-08-02T01:11:54.236Z,14.70
2022-08-02T01:14:22.859Z,14.70
2022-08-02T01:17:12.250Z,14.60
2022-08-02T01:19:54.082Z,14.70
2022-08-02T01:23:02.709Z,14.70
2022-08-02T01:25:48.384Z,14.70
2022-08-02T01:28:36.006Z,14.60
2022-08-02T01:31:32.000Z,14.60
2022-08-02T01:34:01.481Z,14.70
2022-08-02T01:36:34.255Z,14.60
2022-08-02T01:39:04.125Z,14.60
2022-08-02T01:41:33.417Z,14.60
2022-08-02T01:44:01.820Z,14.60
2022-08-02T01:46:31.504Z,14.60
2022-08-02T01:49:01.434Z,14.60
2022-08-02T01:51:48.168Z,14.60
2022-08-02T01:54:19.141Z,14.60
2022-08-02T01:56:47.818Z,14.60
2022-08-02T01:59:18.916Z,14.60
2022-08-02T02:01:48.963Z,14.60
2022-08-02T02:04:16.965Z,14.60
2022-08-02T02:06:46.492Z,14.80
2022-08-02T02:09:15.597Z,14.80
2022-08-02T02:12:12.172Z,14.90
2022-08-02T02:14:34.875Z,15.00
2022-08-02T02:17:03.711Z,15.00
2022-08-02T02:19:33.278Z,15.10
2022-08-02T02:22:00.292Z,15.00
2022-08-02T02:24:28.754Z,15.00
2022-08-02T02:26:55.728Z,15.00
2022-08-02T02:29:27.376Z,14.90
2022-08-02T02:31:55.272Z,14.90
2022-08-02T02:34:32.035Z,14.90
2022-08-02T02:37:05.177Z,14.90
2022-08-02T02:39:33.360Z,14.90
2022-08-02T02:42:03.852Z,14.80
2022-08-02T02:44:32.342Z,14.70
2022-08-02T02:47:00.601Z,14.70
2022-08-02T02:49:29.058Z,14.70
2022-08-02T02:51:57.708Z,14.80
2022-08-02T02:54:34.445Z,14.80
2022-08-02T02:57:04.161Z,14.80
2022-08-02T02:59:32.495Z,14.80
2022-08-02T03:02:00.190Z,14.80
2022-08-02T03:04:56.082Z,14.80
2022-08-02T03:07:18.729Z,14.90
2022-08-02T03:09:47.329Z,14.80
2022-08-02T03:12:21.085Z,14.90
2022-08-02T03:14:49.438Z,14.80
2022-08-02T03:17:16.583Z,14.90
2022-08-02T03:19:44.495Z,14.90
2022-08-02T03:22:11.826Z,15.00
2022-08-02T03:24:39.035Z,15.10
2022-08-02T03:27:05.777Z,15.00
2022-08-02T03:29:34.675Z,15.00
2022-08-02T03:32:01.908Z,15.10
2022-08-02T03:34:29.167Z,15.10
2022-08-02T03:36:56.884Z,15.20
2022-08-02T03:39:25.255Z,15.20
2022-08-02T03:41:52.975Z,15.20
2022-08-02T03:44:19.945Z,15.20
2022-08-02T03:46:47.324Z,15.20
2022-08-02T03:49:16.879Z,15.20
2022-08-02T03:51:45.020Z,15.30
2022-08-02T03:54:12.148Z,15.30
2022-08-02T03:56:39.686Z,15.30
2022-08-02T03:59:11.669Z,15.40
2022-08-02T04:01:39.116Z,15.40
2022-08-02T04:04:07.112Z,15.40
2022-08-02T04:06:33.848Z,15.40
2022-08-02T04:09:00.561Z,15.40
2022-08-02T04:11:33.103Z,15.30
2022-08-02T04:14:11.610Z,15.40
2022-08-02T04:16:45.626Z,15.40
2022-08-02T04:19:27.911Z,15.40
2022-08-02T04:21:56.990Z,15.40
2022-08-02T04:24:35.006Z,15.40
2022-08-02T04:27:19.466Z,15.40
2022-08-02T04:29:50.766Z,15.40
2022-08-02T04:32:18.206Z,15.50
2022-08-02T04:35:11.428Z,15.40
2022-08-02T04:37:33.778Z,15.40
2022-08-02T04:40:00.729Z,15.40
2022-08-02T04:42:27.447Z,15.40
2022-08-02T04:44:54.291Z,15.30
2022-08-02T04:47:39.968Z,15.30
2022-08-02T04:50:09.097Z,15.30
2022-08-02T04:52:35.893Z,15.30
2022-08-02T04:55:02.654Z,15.30
2022-08-02T04:57:52.782Z,15.20
2022-08-02T05:00:20.201Z,15.20
2022-08-02T05:02:47.471Z,15.20
2022-08-02T05:05:14.745Z,15.20
2022-08-02T05:07:41.499Z,15.30
2022-08-02T05:10:08.604Z,15.20
2022-08-02T05:12:35.319Z,15.20
2022-08-02T05:15:02.177Z,15.20
2022-08-02T05:17:29.085Z,15.30
2022-08-02T05:19:55.875Z,15.30
2022-08-02T05:22:22.619Z,15.30
2022-08-02T05:24:49.373Z,15.30
2022-08-02T05:27:21.197Z,15.30
2022-08-02T05:29:53.797Z,15.40
2022-08-02T05:32:23.805Z,15.40
2022-08-02T05:34:52.859Z,15.50
2022-08-02T05:37:19.675Z,15.60
2022-08-02T05:39:55.602Z,15.60
2022-08-02T05:42:23.739Z,15.70
2022-08-02T05:44:50.766Z,15.80
2022-08-02T05:47:17.475Z,15.80
2022-08-02T05:49:44.275Z,15.90
2022-08-02T05:52:19.273Z,16.00
2022-08-02T05:54:53.212Z,16.10
2022-08-02T05:57:47.734Z,16.20
2022-08-02T06:00:16.294Z,16.30
2022-08-02T06:02:44.823Z,16.30
2022-08-02T06:05:22.636Z,16.40
2022-08-02T06:07:50.207Z,16.60
2022-08-02T06:10:21.594Z,16.70
2022-08-02T06:13:14.441Z,16.80
2022-08-02T06:15:52.062Z,16.90
2022-08-02T06:18:27.609Z,16.90
2022-08-02T06:20:59.078Z,17.00
2022-08-02T06:23:57.844Z,17.20
2022-08-02T06:26:27.726Z,17.20
2022-08-02T06:28:56.066Z,17.30
2022-08-02T06:31:23.188Z,17.30
2022-08-02T06:33:50.117Z,17.30
2022-08-02T06:36:27.384Z,17.30
2022-08-02T06:39:05.184Z,17.50
2022-08-02T06:41:43.032Z,17.60
2022-08-02T06:47:12.954Z,17.80
2022-08-02T06:49:51.501Z,17.80
2022-08-02T06:52:28.859Z,17.80
2022-08-02T06:55:01.264Z,17.90
2022-08-02T06:57:29.074Z,18.00
2022-08-02T06:59:56.336Z,18.10
2022-08-02T07:02:24.712Z,18.20
2022-08-02T07:04:51.855Z,18.20
2022-08-02T07:07:18.732Z,18.40
2022-08-02T07:09:56.764Z,18.50
2022-08-02T07:12:28.804Z,18.60
2022-08-02T07:14:55.490Z,18.70
2022-08-02T07:17:23.271Z,18.80
2022-08-02T07:19:50.088Z,18.90
2022-08-02T07:22:18.715Z,19.00
2022-08-02T07:24:45.624Z,19.10
2022-08-02T07:27:13.309Z,19.10
2022-08-02T07:29:46.491Z,19.20
2022-08-02T07:32:19.313Z,19.20
2022-08-02T07:34:52.509Z,19.40
2022-08-02T07:37:53.789Z,19.40
2022-08-02T07:40:19.807Z,19.50
2022-08-02T07:42:49.602Z,19.50
2022-08-02T07:45:16.413Z,19.60
2022-08-02T07:47:47.269Z,19.70
2022-08-02T07:50:16.230Z,19.80
2022-08-02T07:52:43.665Z,20.00
2022-08-02T07:55:11.956Z,20.00
2022-08-02T07:57:45.842Z,20.00
2022-08-02T08:00:13.856Z,20.00
2022-08-02T08:02:40.840Z,20.10
2022-08-02T08:05:08.159Z,20.20
2022-08-02T08:07:35.093Z,20.30
2022-08-02T08:10:02.311Z,20.30
2022-08-02T08:12:29.130Z,20.40
2022-08-02T08:14:55.905Z,20.40
2022-08-02T08:17:22.963Z,20.40
2022-08-02T08:19:51.598Z,20.70
2022-08-02T08:22:20.220Z,20.80
2022-08-02T08:24:48.154Z,20.90
2022-08-02T08:27:15.706Z,21.10
2022-08-02T08:29:43.199Z,21.10
2022-08-02T08:32:15.871Z,21.10
2022-08-02T08:34:43.953Z,21.10
2022-08-02T08:37:16.558Z,21.30
2022-08-02T08:39:58.111Z,21.40
2022-08-02T08:42:30.336Z,21.50
2022-08-02T08:44:58.016Z,21.70
2022-08-02T08:47:40.224Z,21.90
2022-08-02T08:50:18.038Z,21.90
2022-08-02T08:53:03.973Z,21.90
2022-08-02T08:55:32.324Z,21.90
2022-08-02T08:58:00.379Z,22.00
2022-08-02T09:00:27.608Z,22.20
2022-08-02T09:02:54.670Z,22.20
2022-08-02T09:05:21.401Z,22.30
2022-08-02T09:07:49.676Z,22.50
2022-08-02T09:10:37.948Z,22.70
2022-08-02T09:13:37.617Z,22.90
2022-08-02T09:16:12.242Z,23.10
2022-08-02T09:18:46.411Z,23.20
2022-08-02T09:21:15.825Z,23.40
2022-08-02T09:23:51.967Z,23.60
2022-08-02T09:26:21.515Z,23.90
2022-08-02T09:28:50.590Z,24.30
2022-08-02T09:31:23.008Z,24.70
2022-08-02T09:33:58.333Z,24.90
2022-08-02T09:36:26.420Z,25.30
2022-08-02T09:39:01.707Z,25.50
2022-08-02T09:41:33.720Z,25.70
2022-08-02T09:44:04.920Z,25.90
2022-08-02T09:46:43.996Z,26.00
2022-08-02T09:49:19.839Z,26.00
2022-08-02T09:51:47.015Z,26.00
2022-08-02T09:54:24.437Z,26.10
2022-08-02T09:56:52.381Z,26.20
2022-08-02T09:59:21.249Z,26.30
2022-08-02T10:01:51.325Z,26.50
2022-08-02T10:04:34.401Z,26.40
2022-08-02T10:07:04.964Z,26.30
2022-08-02T10:09:32.632Z,26.00
2022-08-02T10:12:00.635Z,26.10
2022-08-02T10:14:28.231Z,26.00
2022-08-02T10:16:57.529Z,25.90
2022-08-02T10:20:02.154Z,26.00
2022-08-02T10:22:13.845Z,26.00
2022-08-02T10:24:48.086Z,26.00
2022-08-02T10:27:20.439Z,26.10
2022-08-02T10:29:55.044Z,25.90
2022-08-02T10:32:30.109Z,26.00
2022-08-02T10:35:33.719Z,26.00
2022-08-02T10:38:03.996Z,26.00
2022-08-02T10:40:50.871Z,26.30
2022-08-02T10:43:32.796Z,26.50
2022-08-02T10:46:22.270Z,26.80
2022-08-02T10:49:13.674Z,27.10
2022-08-02T10:51:55.255Z,27.20
2022-08-02T10:54:25.270Z,27.50
2022-08-02T10:56:54.349Z,27.40
2022-08-02T10:59:29.112Z,27.40
2022-08-02T11:02:03.945Z,27.50
2022-08-02T11:04:39.270Z,27.60
2022-08-02T11:07:17.283Z,27.70
2022-08-02T11:09:50.974Z,27.70
2022-08-02T11:12:19.809Z,27.80
2022-08-02T11:15:07.734Z,27.70
2022-08-02T11:17:54.864Z,27.80
2022-08-02T11:20:23.735Z,27.90
2022-08-02T11:22:53.375Z,28.10
2022-08-02T11:25:23.364Z,28.30
2022-08-02T11:27:50.759Z,28.60
2022-08-02T11:30:18.075Z,28.80
2022-08-02T11:32:45.343Z,28.90
2022-08-02T11:35:12.465Z,29.10
2022-08-02T11:37:42.285Z,29.20
2022-08-02T11:40:19.848Z,29.20
2022-08-02T11:42:53.554Z,29.30
2022-08-02T11:45:29.408Z,29.10
2022-08-02T11:47:56.553Z,29.00
2022-08-02T11:50:30.437Z,29.10
2022-08-02T11:52:57.762Z,29.40
2022-08-02T11:55:29.368Z,29.40
2022-08-02T11:58:05.734Z,29.60
2022-08-02T12:00:32.875Z,29.50
2022-08-02T12:02:59.798Z,29.70
2022-08-02T12:08:18.962Z,29.60
2022-08-02T12:10:49.974Z,29.70
2022-08-02T12:13:16.779Z,29.90
2022-08-02T12:15:45.595Z,29.80
2022-08-02T12:18:32.148Z,29.80
2022-08-02T12:20:59.490Z,29.70
2022-08-02T12:23:26.887Z,29.70
2022-08-02T12:26:15.935Z,29.80
2022-08-02T12:28:45.728Z,29.90
2022-08-02T12:31:15.776Z,29.90
2022-08-02T12:33:47.516Z,29.70
2022-08-02T12:36:18.650Z,29.40
2022-08-02T12:38:55.584Z,29.30
2022-08-02T12:41:30.230Z,29.40
2022-08-02T12:43:59.433Z,29.30
2022-08-02T12:46:26.568Z,29.20
2022-08-02T12:49:15.866Z,29.10
2022-08-02T12:51:51.368Z,29.10
2022-08-02T12:54:40.125Z,28.90
2022-08-02T12:57:14.512Z,29.00
2022-08-02T12:59:44.654Z,28.90
2022-08-02T13:02:13.466Z,29.00
2022-08-02T13:04:41.565Z,28.90
2022-08-02T13:07:17.326Z,28.90
2022-08-02T13:09:48.219Z,28.90
2022-08-02T13:12:15.576Z,29.00
2022-08-02T13:14:42.996Z,29.10
2022-08-02T13:17:10.321Z,29.00
2022-08-02T13:19:38.410Z,29.00
2022-08-02T13:22:05.969Z,29.10
2022-08-02T13:24:40.495Z,29.20
2022-08-02T13:27:20.920Z,29.20
2022-08-02T13:29:48.871Z,29.20
2022-08-02T13:32:16.208Z,29.10
2022-08-02T13:34:43.557Z,29.20
2022-08-02T13:37:10.450Z,29.20
2022-08-02T13:39:37.260Z,29.30
2022-08-02T13:42:04.290Z,29.50
2022-08-02T13:44:33.279Z,29.40
2022-08-02T13:47:00.954Z,29.40
2022-08-02T13:49:49.956Z,29.30
2022-08-02T13:52:14.885Z,29.20
2022-08-02T13:54:42.217Z,29.10
2022-08-02T13:57:09.120Z,29.10
2022-08-02T13:59:58.207Z,29.00
2022-08-02T14:02:22.818Z,29.20
2022-08-02T14:04:49.504Z,29.30
2022-08-02T14:07:16.252Z,29.40
2022-08-02T14:09:43.630Z,29.40
2022-08-02T14:12:11.230Z,29.40
2022-08-02T14:14:38.473Z,29.20
2022-08-02T14:17:05.724Z,28.90
2022-08-02T14:19:32.880Z,29.00
2022-08-02T14:22:10.919Z,28.90
2022-08-02T14:24:39.885Z,29.10
2022-08-02T14:27:07.182Z,29.10
2022-08-02T14:29:34.494Z,29.10
2022-08-02T14:32:02.150Z,29.00
2022-08-02T14:34:29.271Z,28.90
2022-08-02T14:36:56.634Z,29.00
2022-08-02T14:39:23.416Z,29.00
2022-08-02T14:41:58.514Z,29.00
2022-08-02T14:44:27.679Z,29.00
2022-08-02T14:46:54.578Z,29.00
2022-08-02T14:49:24.459Z,28.90
2022-08-02T14:51:53.406Z,28.90
2022-08-02T14:54:20.198Z,28.80
2022-08-02T14:56:56.113Z,28.70
2022-08-02T14:59:23.188Z,28.90
2022-08-02T15:01:49.988Z,28.90
2022-08-02T15:04:16.954Z,28.70
2022-08-02T15:06:43.709Z,28.60
2022-08-02T15:09:10.652Z,28.50
2022-08-02T15:11:47.371Z,28.40
2022-08-02T15:14:21.804Z,28.40
2022-08-02T15:16:58.417Z,28.30
2022-08-02T15:19:54.627Z,28.40
2022-08-02T15:22:16.631Z,28.40
2022-08-02T15:24:45.534Z,28.50
2022-08-02T15:27:14.112Z,28.60
2022-08-02T15:29:42.349Z,28.60
2022-08-02T15:32:09.359Z,28.70
2022-08-02T15:34:36.483Z,28.60
2022-08-02T15:37:03.282Z,28.50
2022-08-02T15:39:30.393Z,28.60
2022-08-02T15:41:57.285Z,28.50
2022-08-02T15:44:24.897Z,28.70
2022-08-02T15:46:51.838Z,28.70
2022-08-02T15:49:20.656Z,28.70
2022-08-02T15:51:47.624Z,28.80
2022-08-02T15:54:14.424Z,28.60
2022-08-02T15:56:41.264Z,28.50
2022-08-02T15:59:07.988Z,28.50
2022-08-02T16:01:38.357Z,28.40
2022-08-02T16:04:07.044Z,28.40
2022-08-02T16:06:34.883Z,28.40
2022-08-02T16:09:02.139Z,28.50
2022-08-02T16:11:29.011Z,28.80
2022-08-02T16:13:56.542Z,28.60
2022-08-02T16:16:26.088Z,28.60
2022-08-02T16:18:53.214Z,28.70
2022-08-02T16:21:20.048Z,28.60
2022-08-02T16:23:59.107Z,28.70
2022-08-02T16:26:34.063Z,28.70
2022-08-02T16:29:02.332Z,28.80
2022-08-02T16:31:29.305Z,28.70
2022-08-02T16:33:57.155Z,28.50
2022-08-02T16:36:25.672Z,28.50
2022-08-02T16:38:54.067Z,28.40
2022-08-02T16:41:21.626Z,28.40
2022-08-02T16:43:48.452Z,28.50
2022-08-02T16:46:15.191Z,28.20
2022-08-02T16:48:50.810Z,28.00
2022-08-02T16:51:19.256Z,28.00
2022-08-02T16:53:59.737Z,27.90
2022-08-02T16:56:28.161Z,27.80
2022-08-02T16:58:59.654Z,27.70
2022-08-02T17:02:01.919Z,27.80
2022-08-02T17:04:15.538Z,27.70
2022-08-02T17:06:47.671Z,27.80
2022-08-02T17:10:03.975Z,27.70
2022-08-02T17:12:15.816Z,27.70
2022-08-02T17:14:54.988Z,27.70
2022-08-02T17:17:34.231Z,27.80
2022-08-02T17:20:06.655Z,27.70
2022-08-02T17:25:21.496Z,27.50
2022-08-02T17:28:14.871Z,27.40
2022-08-02T17:30:51.549Z,27.30
2022-08-02T17:33:18.549Z,27.30
2022-08-02T17:35:52.959Z,27.30
2022-08-02T17:38:26.611Z,27.30
2022-08-02T17:40:57.073Z,27.20
2022-08-02T17:43:29.051Z,27.20
2022-08-02T17:46:02.472Z,27.10
2022-08-02T17:48:55.167Z,27.30
2022-08-02T17:52:14.935Z,27.20
2022-08-02T17:54:10.306Z,27.20
2022-08-02T17:56:42.489Z,27.20
2022-08-02T17:59:20.862Z,27.10
2022-08-02T18:01:52.862Z,27.20
2022-08-02T18:04:20.342Z,27.30
2022-08-02T18:06:57.820Z,27.20
2022-08-02T18:09:26.334Z,27.20
2022-08-02T18:11:56.353Z,27.10
2022-08-02T18:14:24.453Z,27.20
2022-08-02T18:16:53.576Z,27.20
2022-08-02T18:19:20.400Z,27.10
2022-08-02T18:21:48.243Z,27.10
2022-08-02T18:24:16.147Z,26.90
2022-08-02T18:29:30.084Z,26.80
2022-08-02T18:32:11.716Z,26.70
2022-08-02T18:34:39.229Z,26.60
2022-08-02T18:37:06.758Z,26.70
2022-08-02T18:39:34.855Z,26.60
2022-08-02T18:42:07.851Z,26.60
2022-08-02T18:44:34.573Z,26.60
2022-08-02T18:47:01.818Z,26.60
2022-08-02T18:49:46.192Z,26.70
2022-08-02T18:52:15.419Z,26.80
2022-08-02T18:54:44.816Z,26.70
2022-08-02T18:58:18.258Z,26.60
2022-08-02T19:00:01.185Z,26.60
2022-08-02T19:02:28.068Z,26.60
2022-08-02T19:04:55.146Z,26.60
2022-08-02T19:07:22.476Z,26.50
2022-08-02T19:09:49.620Z,26.50
2022-08-02T19:12:27.865Z,26.40
2022-08-02T19:14:55.257Z,26.30
2022-08-02T19:17:55.702Z,26.20
2022-08-02T19:20:10.734Z,26.20
2022-08-02T19:22:46.645Z,26.00
2022-08-02T19:25:27.713Z,25.90
2022-08-02T19:27:55.590Z,25.80
2022-08-02T19:30:22.392Z,25.70
2022-08-02T19:32:59.563Z,25.70
2022-08-02T19:35:30.972Z,25.60
2022-08-02T19:38:09.259Z,25.70
2022-08-02T19:40:43.927Z,25.80
2022-08-02T19:44:23.452Z,25.70
2022-08-02T19:46:00.206Z,25.60
2022-08-02T19:48:28.292Z,25.50
2022-08-02T19:51:01.166Z,25.50
2022-08-02T19:53:48.873Z,25.30
2022-08-02T19:56:25.011Z,25.30
2022-08-02T19:58:54.239Z,25.20
2022-08-02T20:04:13.532Z,25.00
2022-08-02T20:06:45.956Z,24.90
2022-08-02T20:09:21.226Z,24.90
2022-08-02T20:11:54.319Z,24.70
2022-08-02T20:14:27.609Z,24.80
2022-08-02T20:16:58.215Z,24.70
2022-08-02T20:19:29.580Z,24.60
2022-08-02T20:22:00.077Z,24.40
2022-08-02T20:24:28.252Z,24.40
2022-08-02T20:26:55.312Z,24.40
2022-08-02T20:29:42.942Z,24.40
2022-08-02T20:32:22.912Z,24.30
2022-08-02T20:35:08.319Z,24.20
2022-08-02T20:38:00.430Z,24.10
2022-08-02T20:40:25.234Z,24.10
2022-08-02T20:42:52.847Z,24.10
2022-08-02T20:45:21.540Z,24.10
2022-08-02T20:47:52.415Z,24.00
2022-08-02T20:50:41.524Z,24.00
2022-08-02T20:53:23.781Z,23.90
2022-08-02T20:55:54.479Z,23.90
2022-08-02T20:58:27.308Z,23.90
2022-08-02T21:00:58.794Z,23.80
2022-08-02T21:03:39.103Z,23.70
2022-08-02T21:06:14.828Z,23.60
2022-08-02T21:08:42.002Z,23.70
2022-08-02T21:11:14.049Z,23.70
2022-08-02T21:13:46.875Z,23.60
2022-08-02T21:16:18.473Z,23.40
2022-08-02T21:18:46.377Z,23.30
2022-08-02T21:21:16.280Z,23.30
2022-08-02T21:23:48.375Z,23.40
2022-08-02T21:26:30.619Z,23.40
2022-08-02T21:29:03.097Z,23.30
2022-08-02T21:31:35.477Z,23.20
2022-08-02T21:34:02.980Z,23.20
2022-08-02T21:36:33.269Z,23.20
2022-08-02T21:39:04.391Z,23.10
2022-08-02T21:41:48.567Z,23.00
2022-08-02T21:44:16.984Z,23.10
2022-08-02T21:46:55.070Z,23.10
2022-08-02T21:49:27.238Z,23.10
2022-08-02T21:52:08.426Z,23.00
2022-08-02T21:54:35.493Z,23.00
2022-08-02T21:57:07.508Z,22.90
2022-08-02T21:59:45.182Z,22.90
2022-08-02T22:02:13.110Z,22.90
2022-08-02T22:04:41.561Z,22.90
2022-08-02T22:07:24.299Z,22.80
2022-08-02T22:09:52.327Z,22.80
2022-08-02T22:12:19.589Z,22.70
2022-08-02T22:14:54.937Z,22.70
2022-08-02T22:17:46.829Z,22.60
2022-08-02T22:20:20.080Z,22.60
2022-08-02T22:22:50.422Z,22.60
2022-08-02T22:25:21.457Z,22.50
2022-08-02T22:28:36.060Z,22.40
2022-08-02T22:30:51.156Z,22.40
2022-08-02T22:33:42.159Z,22.40
2022-08-02T22:36:13.620Z,22.30
2022-08-02T22:38:45.777Z,22.30
2022-08-02T22:41:13.766Z,22.30
2022-08-02T22:43:41.836Z,22.20
2022-08-02T22:46:09.961Z,22.10
2022-08-02T22:48:42.789Z,22.00
2022-08-02T22:51:11.183Z,22.00
2022-08-02T22:53:39.388Z,22.00
2022-08-02T22:56:06.181Z,21.90
2022-08-02T22:58:33.032Z,21.90
2022-08-02T22:58:44.225Z,27.00
2022-08-02T22:58:48.845Z,27.70
2022-08-02T22:58:54.159Z,25.00
2022-08-02T23:01:00.640Z,21.90
2022-08-02T23:03:27.863Z,21.80
2022-08-02T23:05:54.899Z,21.70
2022-08-02T23:08:21.684Z,21.60
2022-08-02T23:10:48.555Z,21.60
2022-08-02T23:13:15.426Z,21.60
2022-08-02T23:16:01.716Z,21.60
2022-08-02T23:18:47.657Z,21.70
2022-08-02T23:21:14.509Z,21.70
2022-08-02T23:24:01.692Z,21.60
2022-08-02T23:26:29.173Z,21.60
2022-08-02T23:28:55.965Z,21.60
2022-08-02T23:31:37.447Z,21.60
2022-08-02T23:34:05.742Z,21.50
2022-08-02T23:36:33.793Z,21.50
2022-08-02T23:39:00.941Z,21.50
2022-08-02T23:41:27.809Z,21.50
2022-08-02T23:44:12.572Z,21.50
2022-08-02T23:46:44.785Z,21.60
2022-08-02T23:49:12.084Z,21.50
2022-08-02T23:51:38.878Z,21.50
2022-08-02T23:54:05.580Z,21.50
2022-08-02T23:56:32.334Z,21.40
2022-08-02T23:58:59.075Z,21.40
